createdAt,value
2022-10-04T00:00:12.977Z,99113.44
2022-10-04T00:02:47.067Z,99109.16
2022-10-04T00:05:17.730Z,99116.00
2022-10-04T00:07:49.188Z,99103.19
2022-10-04T00:10:20.938Z,99108.31
2022-10-04T00:12:59.771Z,99097.19
2022-10-04T00:15:30.843Z,99102.25
2022-10-04T00:18:12.313Z,99113.34
2022-10-04T00:20:51.027Z,99115.88
2022-10-04T00:23:23.565Z,99119.28
2022-10-04T00:26:01.815Z,99117.56
2022-10-04T00:28:36.322Z,99119.25
2022-10-04T00:31:06.074Z,99109.03
2022-10-04T00:33:44.187Z,99106.47
2022-10-04T00:36:25.962Z,99103.91
2022-10-04T00:39:33.892Z,99095.34
2022-10-04T00:42:17.753Z,99090.22
2022-10-04T00:45:01.227Z,99088.53
2022-10-04T00:47:45.931Z,99074.88
2022-10-04T00:50:27.293Z,99078.25
2022-10-04T00:52:57.597Z,99091.06
2022-10-04T00:55:34.660Z,99085.09
2022-10-04T00:58:07.364Z,99088.50
2022-10-04T01:00:36.283Z,99089.38
2022-10-04T01:03:10.530Z,99092.75
2022-10-04T01:05:42.485Z,99083.34
2022-10-04T01:08:13.959Z,99083.34
2022-10-04T01:10:55.656Z,99081.63
2022-10-04T01:13:30.852Z,99074.78
2022-10-04T01:16:03.668Z,99078.19
2022-10-04T01:18:33.411Z,99077.31
2022-10-04T01:21:28.509Z,99076.47
2022-10-04T01:23:57.985Z,99084.97
2022-10-04T01:26:30.449Z,99083.31
2022-10-04T01:28:58.966Z,99080.75
2022-10-04T01:31:30.459Z,99080.72
2022-10-04T01:33:57.655Z,99080.72
2022-10-04T01:36:24.183Z,99073.03
2022-10-04T01:38:51.326Z,99074.72
2022-10-04T01:41:22.398Z,99083.19
2022-10-04T01:43:52.546Z,99087.41
2022-10-04T01:46:24.963Z,99091.72
2022-10-04T01:48:54.396Z,99085.75
2022-10-04T01:51:26.394Z,99079.75
2022-10-04T01:54:05.858Z,99080.63
2022-10-04T01:56:37.717Z,99078.03
2022-10-04T01:59:13.927Z,99074.59
2022-10-04T02:01:59.264Z,99072.06
2022-10-04T02:04:34.115Z,99070.38
2022-10-04T02:07:03.437Z,99062.72
2022-10-04T02:09:34.165Z,99065.28
2022-10-04T02:12:01.618Z,99055.91
2022-10-04T02:14:33.257Z,99053.31
2022-10-04T02:17:03.301Z,99050.78
2022-10-04T02:19:41.555Z,99055.88
2022-10-04T02:22:10.852Z,99049.88
2022-10-04T02:24:42.258Z,99052.44
2022-10-04T02:27:08.888Z,99054.97
2022-10-04T02:29:35.636Z,99052.41
2022-10-04T02:32:24.258Z,99044.75
2022-10-04T02:34:51.734Z,99045.63
2022-10-04T02:37:18.567Z,99045.63
2022-10-04T02:39:53.520Z,99043.91
2022-10-04T02:42:41.494Z,99030.25
2022-10-04T02:45:19.475Z,99024.28
2022-10-04T02:47:52.638Z,99022.56
2022-10-04T02:50:36.167Z,99017.44
2022-10-04T02:53:24.991Z,99025.94
2022-10-04T02:55:52.046Z,99025.91
2022-10-04T02:58:22.341Z,99031.03
2022-10-04T03:01:00.371Z,99037.03
2022-10-04T03:03:32.902Z,99034.44
2022-10-04T03:06:41.796Z,99044.59
2022-10-04T03:09:09.055Z,99043.78
2022-10-04T03:11:40.612Z,99042.09
2022-10-04T03:18:12.903Z,99054.75
2022-10-04T03:20:58.760Z,99061.56
2022-10-04T03:23:25.265Z,99063.25
2022-10-04T03:26:29.036Z,99060.69
2022-10-04T03:28:58.016Z,99055.56
2022-10-04T03:31:27.750Z,99042.81
2022-10-04T03:33:57.038Z,99044.53
2022-10-04T03:36:26.387Z,99041.97
2022-10-04T03:38:56.259Z,99035.16
2022-10-04T03:41:25.931Z,99034.31
2022-10-04T03:43:54.854Z,99036.84
2022-10-04T03:46:23.657Z,99036.03
2022-10-04T03:48:52.074Z,99030.91
2022-10-04T03:51:27.239Z,99035.16
2022-10-04T03:53:59.337Z,99048.78
2022-10-04T03:56:29.647Z,99036.03
2022-10-04T03:58:57.149Z,99027.50
2022-10-04T04:01:49.049Z,99025.03
2022-10-04T04:04:34.846Z,99025.88
2022-10-04T04:07:05.447Z,99030.16
2022-10-04T04:09:41.131Z,99027.63
2022-10-04T04:12:14.927Z,99016.56
2022-10-04T04:14:42.679Z,99011.47
2022-10-04T04:17:27.571Z,99012.34
2022-10-04T04:20:07.468Z,99008.94
2022-10-04T04:22:36.208Z,99004.69
2022-10-04T04:25:08.209Z,99017.47
2022-10-04T04:27:40.549Z,99006.44
2022-10-04T04:30:08.902Z,98996.22
2022-10-04T04:32:41.576Z,98999.63
2022-10-04T04:35:22.118Z,99016.66
2022-10-04T04:38:17.381Z,99034.53
2022-10-04T04:40:44.626Z,99035.44
2022-10-04T04:43:18.095Z,99042.28
2022-10-04T04:45:54.905Z,99043.97
2022-10-04T04:48:32.779Z,99041.41
2022-10-04T04:50:59.289Z,99044.84
2022-10-04T04:53:30.453Z,99044.03
2022-10-04T04:56:05.469Z,99037.22
2022-10-04T04:58:35.656Z,99032.94
2022-10-04T05:01:22.817Z,99034.66
2022-10-04T05:04:02.887Z,99025.28
2022-10-04T05:06:31.119Z,99020.16
2022-10-04T05:08:57.572Z,99032.09
2022-10-04T05:11:29.226Z,99020.22
2022-10-04T05:14:05.822Z,99015.09
2022-10-04T05:17:01.715Z,99018.50
2022-10-04T05:19:32.765Z,99010.84
2022-10-04T05:22:02.483Z,99002.31
2022-10-04T05:24:33.396Z,99010.84
2022-10-04T05:27:07.648Z,99015.94
2022-10-04T05:29:38.210Z,99021.09
2022-10-04T05:32:27.065Z,99021.97
2022-10-04T05:34:54.613Z,99029.66
2022-10-04T05:38:06.034Z,99027.97
2022-10-04T05:41:06.703Z,99032.22
2022-10-04T05:43:38.704Z,99025.44
2022-10-04T05:46:20.497Z,99029.66
2022-10-04T05:48:52.633Z,99028.84
2022-10-04T05:51:24.693Z,99022.00
2022-10-04T05:53:52.303Z,99010.94
2022-10-04T05:56:18.703Z,99018.59
2022-10-04T05:59:05.876Z,99014.38
2022-10-04T06:01:50.821Z,99024.59
2022-10-04T06:04:45.487Z,99030.56
2022-10-04T06:07:11.827Z,99038.25
2022-10-04T06:09:53.510Z,99036.56
2022-10-04T06:12:30.260Z,99044.25
2022-10-04T06:15:03.604Z,99051.09
2022-10-04T06:18:02.113Z,99047.69
2022-10-04T06:20:46.782Z,99048.53
2022-10-04T06:23:18.602Z,99044.25
2022-10-04T06:26:00.541Z,99045.13
2022-10-04T06:28:45.452Z,99050.28
2022-10-04T06:31:45.936Z,99037.47
2022-10-04T06:34:48.135Z,99047.75
2022-10-04T06:37:38.389Z,99050.31
2022-10-04T06:40:28.553Z,99045.19
2022-10-04T06:43:07.314Z,99044.31
2022-10-04T06:45:56.807Z,99043.47
2022-10-04T06:48:42.082Z,99052.00
2022-10-04T06:51:33.034Z,99047.72
2022-10-04T06:54:24.405Z,99039.19
2022-10-04T06:57:31.563Z,99037.47
2022-10-04T07:00:19.316Z,99039.16
2022-10-04T07:03:09.417Z,99033.16
2022-10-04T07:05:45.911Z,99037.41
2022-10-04T07:08:30.894Z,99047.63
2022-10-04T07:11:06.527Z,99054.44
2022-10-04T07:14:03.831Z,99056.97
2022-10-04T07:16:56.332Z,99050.94
2022-10-04T07:19:33.686Z,99055.16
2022-10-04T07:22:06.309Z,99054.22
2022-10-04T07:24:50.868Z,99063.56
2022-10-04T07:27:24.104Z,99065.22
2022-10-04T07:30:00.494Z,99063.47
2022-10-04T07:32:29.879Z,99058.25
2022-10-04T07:35:16.899Z,99066.75
2022-10-04T07:38:12.549Z,99069.19
2022-10-04T07:40:51.719Z,99068.16
2022-10-04T07:43:27.385Z,99069.78
2022-10-04T07:46:03.686Z,99072.09
2022-10-04T07:48:30.303Z,99071.97
2022-10-04T07:51:29.520Z,99073.44
2022-10-04T07:54:12.696Z,99088.66
2022-10-04T07:56:58.838Z,99084.16
2022-10-04T07:59:29.661Z,99087.28
2022-10-04T08:02:13.645Z,99080.16
2022-10-04T08:04:57.091Z,99087.56
2022-10-04T08:07:43.262Z,99078.63
2022-10-04T08:10:34.465Z,99067.97
2022-10-04T08:13:20.310Z,99077.03
2022-10-04T08:15:46.893Z,99070.06
2022-10-04T08:18:25.530Z,99076.81
2022-10-04T08:21:02.036Z,99081.59
2022-10-04T08:23:44.021Z,99085.44
2022-10-04T08:26:41.584Z,99092.34
2022-10-04T08:29:45.168Z,99093.44
2022-10-04T08:32:14.528Z,99094.53
2022-10-04T08:35:03.073Z,99093.47
2022-10-04T08:37:35.769Z,99095.84
2022-10-04T08:40:32.872Z,99089.59
2022-10-04T08:43:08.465Z,99073.94
2022-10-04T08:45:44.214Z,99070.94
2022-10-04T08:48:44.654Z,99078.94
2022-10-04T08:51:45.001Z,99096.84
2022-10-04T08:54:13.569Z,99097.50
2022-10-04T08:57:02.596Z,99085.59
2022-10-04T08:59:45.457Z,99089.91
2022-10-04T09:02:37.464Z,99089.66
2022-10-04T09:05:41.623Z,99091.84
2022-10-04T09:08:32.268Z,99086.53
2022-10-04T09:11:19.865Z,99102.31
2022-10-04T09:14:20.445Z,99098.06
2022-10-04T09:17:18.582Z,99101.63
2022-10-04T09:20:38.612Z,99098.97
2022-10-04T09:23:37.989Z,99083.03
2022-10-04T09:26:13.894Z,99083.34
2022-10-04T09:29:04.630Z,99086.22
2022-10-04T09:31:40.714Z,99080.09
2022-10-04T09:34:23.308Z,99080.13
2022-10-04T09:37:01.909Z,99072.66
2022-10-04T09:39:46.846Z,99080.25
2022-10-04T09:42:50.658Z,99065.97
2022-10-04T09:45:28.853Z,99076.22
2022-10-04T09:48:25.077Z,99071.47
2022-10-04T09:51:08.328Z,99076.09
2022-10-04T09:53:51.848Z,99079.72
2022-10-04T09:56:46.123Z,99082.41
2022-10-04T09:59:54.173Z,99081.03
2022-10-04T10:02:48.715Z,99076.97
2022-10-04T10:05:52.956Z,99075.75
2022-10-04T10:08:41.198Z,99076.97
2022-10-04T10:11:52.729Z,99074.81
2022-10-04T10:14:21.777Z,99069.72
2022-10-04T10:17:16.117Z,99058.75
2022-10-04T10:20:09.056Z,99057.72
2022-10-04T10:23:14.354Z,99061.25
2022-10-04T10:25:48.894Z,99055.44
2022-10-04T10:28:51.744Z,99063.31
2022-10-04T10:31:18.242Z,99059.75
2022-10-04T10:34:03.228Z,99068.44
2022-10-04T10:37:06.938Z,99070.78
2022-10-04T10:39:46.624Z,99066.63
2022-10-04T10:42:28.159Z,99059.13
2022-10-04T10:45:09.358Z,99049.09
2022-10-04T10:47:45.473Z,99045.94
2022-10-04T10:50:58.509Z,99049.94
2022-10-04T10:53:41.444Z,99052.97
2022-10-04T10:56:45.902Z,99043.75
2022-10-04T10:59:51.185Z,99042.38
2022-10-04T11:02:48.816Z,99038.31
2022-10-04T11:05:22.292Z,99038.56
2022-10-04T11:07:57.826Z,99037.72
2022-10-04T11:11:08.629Z,99031.78
2022-10-04T11:14:11.804Z,99031.78
2022-10-04T11:17:15.855Z,99032.13
2022-10-04T11:20:24.301Z,99028.94
2022-10-04T11:23:15.023Z,99029.00
2022-10-04T11:26:19.823Z,99022.91
2022-10-04T11:28:58.969Z,99022.22
2022-10-04T11:31:45.784Z,99011.31
2022-10-04T11:34:48.218Z,99009.13
2022-10-04T11:37:36.752Z,99015.75
2022-10-04T11:40:27.200Z,99007.63
2022-10-04T11:43:23.740Z,99010.50
2022-10-04T11:46:11.188Z,99012.56
2022-10-04T11:48:37.811Z,99013.34
2022-10-04T11:51:27.205Z,99008.75
2022-10-04T11:54:07.511Z,99005.50
2022-10-04T11:56:57.294Z,99006.25
2022-10-04T11:59:30.503Z,99010.75
2022-10-04T12:02:28.378Z,99001.91
2022-10-04T12:05:15.610Z,99006.13
2022-10-04T12:07:50.934Z,99002.34
2022-10-04T12:10:40.339Z,98997.34
2022-10-04T12:13:14.317Z,99004.13
2022-10-04T12:16:06.623Z,98999.94
2022-10-04T12:18:49.348Z,98999.09
2022-10-04T12:21:40.965Z,98990.66
2022-10-04T12:24:36.942Z,98991.59
2022-10-04T12:27:09.280Z,98988.63
2022-10-04T12:29:36.383Z,98988.75
2022-10-04T12:32:08.816Z,98988.25
2022-10-04T12:34:46.771Z,98988.19
2022-10-04T12:37:20.681Z,98986.53
2022-10-04T12:40:10.372Z,98982.13
2022-10-04T12:42:46.815Z,98978.47
2022-10-04T12:45:22.320Z,98980.31
2022-10-04T12:48:28.405Z,98979.34
2022-10-04T12:51:29.007Z,98974.91
2022-10-04T12:54:26.381Z,98974.44
2022-10-04T12:57:11.069Z,98976.53
2022-10-04T12:59:51.682Z,98969.50
2022-10-04T13:02:21.187Z,98961.56
2022-10-04T13:04:53.025Z,98970.53
2022-10-04T13:07:35.896Z,98970.09
2022-10-04T13:10:29.791Z,98970.56
2022-10-04T13:13:14.426Z,98961.34
2022-10-04T13:18:42.024Z,98961.41
2022-10-04T13:21:14.634Z,98958.22
2022-10-04T13:23:59.633Z,98954.75
2022-10-04T13:26:46.907Z,98955.75
2022-10-04T13:29:33.583Z,98959.94
2022-10-04T13:32:17.173Z,98948.97
2022-10-04T13:34:54.668Z,98952.69
2022-10-04T13:37:53.240Z,98955.72
2022-10-04T13:40:32.533Z,98956.69
2022-10-04T13:43:23.487Z,98951.63
2022-10-04T13:46:06.337Z,98956.81
2022-10-04T13:49:00.977Z,98956.94
2022-10-04T13:52:11.951Z,98951.81
2022-10-04T13:55:09.411Z,98949.19
2022-10-04T13:58:07.878Z,98949.78
2022-10-04T14:01:06.595Z,98952.69
2022-10-04T14:03:55.704Z,98951.38
2022-10-04T14:06:25.061Z,98952.19
2022-10-04T14:09:13.650Z,98950.47
2022-10-04T14:11:50.095Z,98955.59
2022-10-04T14:14:54.292Z,98956.56
2022-10-04T14:18:01.088Z,98952.94
2022-10-04T14:20:50.507Z,98944.47
2022-10-04T14:24:03.436Z,98939.22
2022-10-04T14:27:01.034Z,98944.09
2022-10-04T14:29:36.421Z,98936.03
2022-10-04T14:32:41.605Z,98936.97
2022-10-04T14:35:35.468Z,98925.75
2022-10-04T14:38:10.844Z,98924.19
2022-10-04T14:40:55.890Z,98925.00
2022-10-04T14:44:00.046Z,98919.56
2022-10-04T14:46:45.130Z,98925.00
2022-10-04T14:49:25.044Z,98922.34
2022-10-04T14:52:02.284Z,98922.59
2022-10-04T14:54:50.369Z,98924.13
2022-10-04T14:57:50.173Z,98925.19
2022-10-04T15:00:55.674Z,98916.97
2022-10-04T15:03:40.567Z,98910.09
2022-10-04T15:06:12.031Z,98912.88
2022-10-04T15:08:41.501Z,98916.31
2022-10-04T15:11:13.616Z,98914.88
2022-10-04T15:13:48.979Z,98907.25
2022-10-04T15:16:46.045Z,98904.84
2022-10-04T15:19:21.702Z,98897.94
2022-10-04T15:22:20.013Z,98897.19
2022-10-04T15:24:52.171Z,98892.06
2022-10-04T15:27:27.655Z,98897.22
2022-10-04T15:30:00.837Z,98882.63
2022-10-04T15:32:39.135Z,98887.00
2022-10-04T15:35:21.121Z,98884.59
2022-10-04T15:37:50.622Z,98880.34
2022-10-04T15:40:40.015Z,98876.22
2022-10-04T15:43:27.171Z,98890.22
2022-10-04T15:46:16.637Z,98884.28
2022-10-04T15:48:55.144Z,98879.25
2022-10-04T15:51:42.448Z,98887.28
2022-10-04T15:54:43.215Z,98889.19
2022-10-04T15:57:29.928Z,98892.03
2022-10-04T16:00:11.688Z,98891.97
2022-10-04T16:02:57.827Z,98892.84
2022-10-04T16:05:59.861Z,98891.38
2022-10-04T16:08:49.441Z,98895.81
2022-10-04T16:11:15.802Z,98909.97
2022-10-04T16:13:56.812Z,98902.41
2022-10-04T16:16:50.704Z,98905.09
2022-10-04T16:19:22.932Z,98896.78
2022-10-04T16:21:52.887Z,98898.94
2022-10-04T16:24:22.265Z,98900.81
2022-10-04T16:26:50.417Z,98894.91
2022-10-04T16:29:45.358Z,98895.31
2022-10-04T16:32:19.979Z,98899.03
2022-10-04T16:34:53.068Z,98896.06
2022-10-04T16:37:31.628Z,98891.16
2022-10-04T16:40:03.357Z,98898.38
2022-10-04T16:43:01.312Z,98885.94
2022-10-04T16:45:35.222Z,98884.44
2022-10-04T16:48:23.341Z,98885.50
2022-10-04T16:51:04.900Z,98886.88
2022-10-04T16:53:37.251Z,98890.06
2022-10-04T16:56:16.456Z,98888.84
2022-10-04T16:58:49.807Z,98890.91
2022-10-04T17:01:22.283Z,98887.78
2022-10-04T17:04:29.465Z,98886.44
2022-10-04T17:06:58.732Z,98890.22
2022-10-04T17:10:05.929Z,98890.50
2022-10-04T17:12:36.903Z,98891.06
2022-10-04T17:15:27.575Z,98902.47
2022-10-04T17:18:08.782Z,98907.06
2022-10-04T17:20:41.281Z,98924.44
2022-10-04T17:23:45.207Z,98922.16
2022-10-04T17:26:44.280Z,98925.03
2022-10-04T17:29:25.959Z,98914.00
2022-10-04T17:32:01.183Z,98914.13
2022-10-04T17:34:54.699Z,98915.28
2022-10-04T17:37:41.007Z,98914.63
2022-10-04T17:40:12.326Z,98913.03
2022-10-04T17:43:19.572Z,98914.91
2022-10-04T17:45:58.187Z,98909.84
2022-10-04T17:48:47.245Z,98914.31
2022-10-04T17:51:41.335Z,98905.78
2022-10-04T17:57:49.868Z,98922.28
2022-10-04T18:00:23.786Z,98912.88
2022-10-04T18:03:05.489Z,98899.16
2022-10-04T18:05:35.282Z,98902.63
2022-10-04T18:08:17.827Z,98900.09
2022-10-04T18:11:03.625Z,98904.38
2022-10-04T18:13:49.385Z,98900.94
2022-10-04T18:16:45.873Z,98889.81
2022-10-04T18:19:37.542Z,98900.94
2022-10-04T18:22:09.996Z,98901.00
2022-10-04T18:24:36.478Z,98904.41
2022-10-04T18:27:18.403Z,98905.25
2022-10-04T18:30:11.041Z,98894.13
2022-10-04T18:32:48.383Z,98889.75
2022-10-04T18:35:26.696Z,98897.47
2022-10-04T18:37:56.432Z,98914.66
2022-10-04T18:40:28.640Z,98917.19
2022-10-04T18:42:57.765Z,98921.50
2022-10-04T18:45:29.768Z,98925.84
2022-10-04T18:47:59.301Z,98922.44
2022-10-04T18:50:43.614Z,98936.25
2022-10-04T18:53:16.115Z,98929.50
2022-10-04T18:56:03.476Z,98942.41
2022-10-04T18:58:54.599Z,98944.19
2022-10-04T19:02:01.787Z,98943.44
2022-10-04T19:04:49.870Z,98943.44
2022-10-04T19:07:33.056Z,98940.97
2022-10-04T19:10:54.720Z,98938.50
2022-10-04T19:13:23.977Z,98932.47
2022-10-04T19:16:21.079Z,98938.56
2022-10-04T19:18:47.787Z,98935.13
2022-10-04T19:21:23.540Z,98934.22
2022-10-04T19:24:11.492Z,98934.38
2022-10-04T19:26:49.773Z,98924.91
2022-10-04T19:29:26.442Z,98936.94
2022-10-04T19:32:00.238Z,98942.28
2022-10-04T19:34:56.321Z,98944.84
2022-10-04T19:37:30.134Z,98938.88
2022-10-04T19:40:09.821Z,98939.75
2022-10-04T19:42:57.812Z,98939.75
2022-10-04T19:46:02.278Z,98937.97
2022-10-04T19:48:36.410Z,98941.44
2022-10-04T19:51:27.017Z,98940.53
2022-10-04T19:54:00.363Z,98950.66
2022-10-04T19:56:31.437Z,98943.94
2022-10-04T19:59:10.315Z,98949.06
2022-10-04T20:01:37.407Z,98940.53
2022-10-04T20:04:33.353Z,98944.84
2022-10-04T20:07:19.605Z,98950.13
2022-10-04T20:09:55.214Z,98960.47
2022-10-04T20:12:37.271Z,98959.53
2022-10-04T20:15:43.290Z,98955.31
2022-10-04T20:18:41.952Z,98956.19
2022-10-04T20:21:11.495Z,98959.66
2022-10-04T20:23:40.729Z,98957.97
2022-10-04T20:26:09.261Z,98966.63
2022-10-04T20:28:40.141Z,98966.69
2022-10-04T20:31:08.431Z,98972.81
2022-10-04T20:33:34.897Z,98972.88
2022-10-04T20:36:32.174Z,98972.13
2022-10-04T20:39:03.544Z,98972.16
2022-10-04T20:41:48.952Z,98967.03
2022-10-04T20:44:42.293Z,98974.75
2022-10-04T20:47:42.040Z,98978.19
2022-10-04T20:50:31.506Z,98987.75
2022-10-04T20:53:02.815Z,98996.47
2022-10-04T20:55:32.007Z,98987.13
2022-10-04T20:58:01.337Z,98993.19
2022-10-04T21:00:33.628Z,98987.28
2022-10-04T21:03:18.514Z,98984.84
2022-10-04T21:05:58.406Z,98990.03
2022-10-04T21:08:26.389Z,98993.53
2022-10-04T21:11:15.407Z,99005.56
2022-10-04T21:13:54.009Z,99003.03
2022-10-04T21:16:44.782Z,99003.91
2022-10-04T21:19:33.362Z,99007.41
2022-10-04T21:22:05.163Z,99008.19
2022-10-04T21:24:38.881Z,99000.47
2022-10-04T21:27:09.010Z,98994.41
2022-10-04T21:29:35.534Z,98996.09
2022-10-04T21:32:02.037Z,98986.59
2022-10-04T21:34:51.880Z,98990.81
2022-10-04T21:37:15.701Z,98996.75
2022-10-04T21:39:42.374Z,98991.59
2022-10-04T21:42:09.272Z,98985.56
2022-10-04T21:47:56.393Z,98989.75
2022-10-04T21:50:22.950Z,98999.19
2022-10-04T21:52:52.807Z,98988.03
2022-10-04T21:56:00.748Z,98988.84
2022-10-04T21:58:27.194Z,98995.75
2022-10-04T22:00:53.695Z,98983.69
2022-10-04T22:03:20.189Z,98991.44
2022-10-04T22:05:51.089Z,98991.44
2022-10-04T22:08:17.563Z,98984.56
2022-10-04T22:10:44.064Z,98988.84
2022-10-04T22:13:10.561Z,98982.84
2022-10-04T22:15:37.045Z,98976.88
2022-10-04T22:18:03.700Z,98982.97
2022-10-04T22:20:30.414Z,98992.38
2022-10-04T22:22:58.171Z,98989.75
2022-10-04T22:25:26.966Z,98990.72
2022-10-04T22:27:53.965Z,98995.88
2022-10-04T22:30:36.267Z,99001.03
2022-10-04T22:33:32.590Z,98992.53
2022-10-04T22:36:12.697Z,98980.59
2022-10-04T22:38:40.232Z,98984.13
2022-10-04T22:41:12.309Z,98990.28
2022-10-04T22:43:39.130Z,98983.59
2022-10-04T22:46:06.337Z,98970.84
2022-10-04T22:48:33.057Z,98960.66
2022-10-04T22:50:59.445Z,98958.16
2022-10-04T22:53:25.884Z,98947.13
2022-10-04T22:55:55.770Z,98937.66
2022-10-04T22:58:22.328Z,98927.31
2022-10-04T23:00:49.655Z,98925.47
2022-10-04T23:03:30.790Z,98915.03
2022-10-04T23:06:02.429Z,98919.09
2022-10-04T23:08:29.589Z,98916.38
2022-10-04T23:11:00.566Z,98911.16
2022-10-04T23:13:27.429Z,98916.16
2022-10-04T23:15:58.068Z,98918.63
2022-10-04T23:18:24.541Z,98915.97
2022-10-04T23:20:56.189Z,98918.50
2022-10-04T23:23:22.654Z,98914.09
2022-10-04T23:25:49.816Z,98910.50
2022-10-04T23:28:18.836Z,98910.47
2022-10-04T23:30:48.156Z,98901.88
2022-10-04T23:33:19.670Z,98903.59
2022-10-04T23:35:47.444Z,98900.91
2022-10-04T23:38:16.546Z,98893.97
2022-10-04T23:40:44.037Z,98891.38
2022-10-04T23:43:18.298Z,98889.69
2022-10-04T23:45:45.199Z,98889.63
2022-10-04T23:48:17.233Z,98893.13
2022-10-04T23:50:43.702Z,98892.22
2022-10-04T23:53:17.124Z,98891.38
2022-10-04T23:55:44.732Z,98894.00
2022-10-04T23:58:15.669Z,98894.06
